createdAt,value
2023-05-05T00:01:24.905Z,96582.25
2023-05-05T00:03:51.737Z,96582.00
2023-05-05T00:06:18.740Z,96586.84
2023-05-05T00:08:46.260Z,96581.16
2023-05-05T00:11:12.718Z,96576.63
2023-05-05T00:13:39.062Z,96579.47
2023-05-05T00:16:05.965Z,96571.50
2023-05-05T00:18:33.832Z,96579.47
2023-05-05T00:21:00.210Z,96572.59
2023-05-05T00:23:26.569Z,96575.59
2023-05-05T00:25:52.906Z,96570.88
2023-05-05T00:28:20.028Z,96570.66
2023-05-05T00:33:37.725Z,96565.34
2023-05-05T00:36:04.563Z,96562.25
2023-05-05T00:38:30.957Z,96560.28
2023-05-05T00:40:57.298Z,96561.59
2023-05-05T00:43:23.923Z,96564.59
2023-05-05T00:45:54.385Z,96565.69
2023-05-05T00:48:24.342Z,96564.72
2023-05-05T00:50:50.682Z,96561.00
2023-05-05T00:53:16.968Z,96558.38
2023-05-05T00:55:43.289Z,96561.81
2023-05-05T00:58:09.957Z,96565.31
2023-05-05T01:00:36.285Z,96561.81
2023-05-05T01:03:03.212Z,96559.97
2023-05-05T01:05:34.312Z,96556.41
2023-05-05T01:08:20.370Z,96558.75
2023-05-05T01:10:56.900Z,96560.78
2023-05-05T01:13:42.773Z,96560.00
2023-05-05T01:16:14.716Z,96555.69
2023-05-05T01:18:56.446Z,96566.19
2023-05-05T01:21:27.445Z,96560.41
2023-05-05T01:23:54.031Z,96564.28
2023-05-05T01:26:39.313Z,96569.69
2023-05-05T01:29:05.686Z,96559.03
2023-05-05T01:31:37.273Z,96556.22
2023-05-05T01:34:06.769Z,96557.59
2023-05-05T01:36:37.378Z,96559.19
2023-05-05T01:39:06.566Z,96561.03
2023-05-05T01:41:43.874Z,96553.50
2023-05-05T01:47:32.451Z,96558.16
2023-05-05T01:49:59.752Z,96549.72
2023-05-05T01:52:26.982Z,96552.53
2023-05-05T01:54:54.599Z,96554.06
2023-05-05T01:57:23.500Z,96560.50
2023-05-05T01:59:51.165Z,96561.56
2023-05-05T02:02:19.866Z,96562.41
2023-05-05T02:04:47.983Z,96556.94
2023-05-05T02:07:15.084Z,96549.84
2023-05-05T02:09:42.727Z,96552.13
2023-05-05T02:12:09.841Z,96551.38
2023-05-05T02:14:37.095Z,96551.84
2023-05-05T02:17:03.590Z,96556.22
2023-05-05T02:19:31.824Z,96559.56
2023-05-05T02:21:58.221Z,96567.84
2023-05-05T02:24:25.411Z,96564.31
2023-05-05T02:26:53.285Z,96556.47
2023-05-05T02:29:22.273Z,96568.56
2023-05-05T02:31:55.181Z,96566.13
2023-05-05T02:34:23.889Z,96569.19
2023-05-05T02:36:52.577Z,96570.09
2023-05-05T02:39:25.439Z,96566.19
2023-05-05T02:42:00.628Z,96559.31
2023-05-05T02:44:27.870Z,96555.53
2023-05-05T02:46:54.777Z,96556.66
2023-05-05T02:49:21.482Z,96558.56
2023-05-05T02:51:47.912Z,96563.13
2023-05-05T02:54:14.420Z,96560.97
2023-05-05T02:56:42.858Z,96555.34
2023-05-05T02:59:14.474Z,96558.56
2023-05-05T03:01:58.363Z,96553.47
2023-05-05T03:04:34.893Z,96557.22
2023-05-05T03:07:06.933Z,96549.94
2023-05-05T03:09:37.082Z,96551.13
2023-05-05T03:12:08.149Z,96553.06
2023-05-05T03:14:41.507Z,96553.16
2023-05-05T03:17:10.370Z,96554.75
2023-05-05T03:19:37.410Z,96553.66
2023-05-05T03:22:04.221Z,96549.94
2023-05-05T03:24:30.540Z,96549.81
2023-05-05T03:26:57.640Z,96556.53
2023-05-05T03:29:25.238Z,96550.31
2023-05-05T03:31:51.573Z,96546.13
2023-05-05T03:34:17.876Z,96551.50
2023-05-05T03:36:44.308Z,96546.41
2023-05-05T03:39:10.826Z,96549.94
2023-05-05T03:41:37.225Z,96543.66
2023-05-05T03:44:03.742Z,96552.38
2023-05-05T03:46:30.039Z,96548.78
2023-05-05T03:48:59.363Z,96541.97
2023-05-05T03:51:25.753Z,96552.94
2023-05-05T03:53:52.281Z,96551.06
2023-05-05T03:56:18.706Z,96555.34
2023-05-05T03:58:45.011Z,96551.53
2023-05-05T04:01:11.650Z,96557.00
2023-05-05T04:03:38.988Z,96553.88
2023-05-05T04:06:06.160Z,96553.63
2023-05-05T04:08:32.558Z,96553.13
2023-05-05T04:10:58.943Z,96556.69
2023-05-05T04:13:25.318Z,96555.09
2023-05-05T04:15:51.687Z,96557.66
2023-05-05T04:18:18.074Z,96554.75
2023-05-05T04:20:44.428Z,96555.56
2023-05-05T04:23:10.719Z,96562.25
2023-05-05T04:25:37.061Z,96565.88
2023-05-05T04:28:03.442Z,96558.50
2023-05-05T04:30:29.821Z,96556.25
2023-05-05T04:32:56.264Z,96555.69
2023-05-05T04:35:23.569Z,96554.22
2023-05-05T04:37:50.843Z,96545.91
2023-05-05T04:40:17.223Z,96538.44
2023-05-05T04:42:43.683Z,96540.66
2023-05-05T04:45:10.328Z,96539.72
2023-05-05T04:47:37.372Z,96550.47
2023-05-05T04:50:04.098Z,96542.69
2023-05-05T04:52:30.607Z,96541.88
2023-05-05T04:54:56.998Z,96538.78
2023-05-05T04:57:23.324Z,96546.00
2023-05-05T04:59:50.578Z,96545.38
2023-05-05T05:02:16.950Z,96550.22
2023-05-05T05:04:43.433Z,96555.31
2023-05-05T05:07:09.790Z,96558.00
2023-05-05T05:09:42.855Z,96563.22
2023-05-05T05:12:09.698Z,96556.91
2023-05-05T05:14:39.359Z,96562.28
2023-05-05T05:17:06.618Z,96560.53
2023-05-05T05:19:33.241Z,96558.75
2023-05-05T05:21:59.539Z,96561.97
2023-05-05T05:24:26.204Z,96563.84
2023-05-05T05:26:52.614Z,96564.78
2023-05-05T05:29:20.418Z,96559.44
2023-05-05T05:31:46.788Z,96569.63
2023-05-05T05:34:13.186Z,96561.41
2023-05-05T05:36:39.502Z,96555.28
2023-05-05T05:39:06.009Z,96561.41
2023-05-05T05:41:35.287Z,96563.00
2023-05-05T05:44:01.591Z,96557.06
2023-05-05T05:46:27.948Z,96558.53
2023-05-05T05:48:54.499Z,96555.91
2023-05-05T05:51:21.297Z,96555.63
2023-05-05T05:53:47.670Z,96541.69
2023-05-05T05:56:14.614Z,96544.44
2023-05-05T05:58:41.001Z,96545.75
2023-05-05T06:01:08.203Z,96534.00
2023-05-05T06:03:34.858Z,96553.34
2023-05-05T06:06:01.331Z,96545.25
2023-05-05T06:08:27.777Z,96555.69
2023-05-05T06:10:54.086Z,96556.78
2023-05-05T06:13:22.140Z,96558.25
2023-05-05T06:15:48.551Z,96558.13
2023-05-05T06:18:15.037Z,96560.88
2023-05-05T06:20:41.663Z,96555.44
2023-05-05T06:23:07.979Z,96563.53
2023-05-05T06:25:34.319Z,96556.84
2023-05-05T06:28:00.678Z,96554.91
2023-05-05T06:30:27.178Z,96550.69
2023-05-05T06:32:54.281Z,96553.91
2023-05-05T06:35:24.603Z,96555.81
2023-05-05T06:37:54.459Z,96556.72
2023-05-05T06:40:22.210Z,96560.50
2023-05-05T06:42:48.519Z,96552.25
2023-05-05T06:45:15.387Z,96553.31
2023-05-05T06:47:42.092Z,96554.34
2023-05-05T06:50:09.186Z,96558.22
2023-05-05T06:52:36.090Z,96556.31
2023-05-05T06:55:03.737Z,96557.25
2023-05-05T06:57:30.166Z,96548.09
2023-05-05T06:59:56.519Z,96542.16
2023-05-05T07:02:24.083Z,96539.88
2023-05-05T07:04:52.728Z,96536.41
2023-05-05T07:07:19.057Z,96538.00
2023-05-05T07:09:45.683Z,96541.09
2023-05-05T07:12:12.036Z,96536.94
2023-05-05T07:14:38.429Z,96537.91
2023-05-05T07:17:05.749Z,96528.75
2023-05-05T07:19:32.396Z,96532.41
2023-05-05T07:21:58.746Z,96522.47
2023-05-05T07:24:25.081Z,96520.69
2023-05-05T07:26:51.822Z,96516.53
2023-05-05T07:29:18.159Z,96522.81
2023-05-05T07:31:44.694Z,96514.03
2023-05-05T07:34:11.141Z,96517.88
2023-05-05T07:36:37.565Z,96511.84
2023-05-05T07:39:05.664Z,96499.88
2023-05-05T07:41:31.974Z,96511.31
2023-05-05T07:43:58.340Z,96496.56
2023-05-05T07:46:24.926Z,96495.81
2023-05-05T07:48:51.792Z,96500.09
2023-05-05T07:51:18.109Z,96498.03
2023-05-05T07:53:44.568Z,96492.41
2023-05-05T07:56:10.911Z,96491.78
2023-05-05T07:58:37.210Z,96486.19
2023-05-05T08:01:06.451Z,96482.66
2023-05-05T08:03:32.865Z,96485.72
2023-05-05T08:06:06.134Z,96479.63
2023-05-05T08:08:32.502Z,96477.09
2023-05-05T08:10:58.787Z,96463.09
2023-05-05T08:13:25.124Z,96465.72
2023-05-05T08:15:53.499Z,96457.75
2023-05-05T08:18:20.685Z,96467.16
2023-05-05T08:20:47.326Z,96448.56
2023-05-05T08:23:13.675Z,96455.84
2023-05-05T08:25:40.226Z,96449.78
2023-05-05T08:28:06.502Z,96449.50
2023-05-05T08:30:33.032Z,96440.50
2023-05-05T08:33:00.173Z,96446.25
2023-05-05T08:35:26.514Z,96446.66
2023-05-05T08:37:52.828Z,96446.31
2023-05-05T08:40:21.519Z,96440.53
2023-05-05T08:42:47.929Z,96442.97
2023-05-05T08:45:14.631Z,96438.06
2023-05-05T08:47:43.120Z,96442.31
2023-05-05T08:50:11.026Z,96438.69
2023-05-05T08:52:43.804Z,96439.06
2023-05-05T08:55:17.595Z,96439.06
2023-05-05T08:57:55.998Z,96440.09
2023-05-05T09:00:22.753Z,96441.28
2023-05-05T09:02:49.522Z,96438.31
2023-05-05T09:05:16.144Z,96433.25
2023-05-05T09:07:43.796Z,96433.56
2023-05-05T09:10:11.435Z,96435.63
2023-05-05T09:12:40.947Z,96434.69
2023-05-05T09:15:11.605Z,96424.81
2023-05-05T09:17:38.645Z,96427.06
2023-05-05T09:20:09.019Z,96428.75
2023-05-05T09:22:42.650Z,96420.19
2023-05-05T09:25:10.058Z,96418.72
2023-05-05T09:27:37.449Z,96410.38
2023-05-05T09:30:06.824Z,96409.72
2023-05-05T09:32:46.499Z,96416.63
2023-05-05T09:35:12.977Z,96408.50
2023-05-05T09:37:39.343Z,96400.28
2023-05-05T09:40:07.243Z,96394.88
2023-05-05T09:42:34.564Z,96385.97
2023-05-05T09:45:01.094Z,96386.72
2023-05-05T09:47:37.200Z,96382.63
2023-05-05T09:50:04.204Z,96376.00
2023-05-05T09:52:30.777Z,96376.47
2023-05-05T09:54:57.250Z,96367.56
2023-05-05T09:57:33.254Z,96370.25
2023-05-05T10:00:00.376Z,96367.00
2023-05-05T10:02:37.665Z,96367.72
2023-05-05T10:05:07.107Z,96369.94
2023-05-05T10:07:33.586Z,96364.22
2023-05-05T10:09:59.882Z,96359.66
2023-05-05T10:12:26.789Z,96349.16
2023-05-05T10:14:55.390Z,96351.44
2023-05-05T10:17:22.653Z,96353.66
2023-05-05T10:19:52.878Z,96358.31
2023-05-05T10:22:22.610Z,96359.06
2023-05-05T10:24:57.520Z,96354.38
2023-05-05T10:27:24.593Z,96348.88
2023-05-05T10:29:57.070Z,96342.34
2023-05-05T10:32:53.958Z,96341.53
2023-05-05T10:35:16.503Z,96327.13
2023-05-05T10:37:44.551Z,96330.97
2023-05-05T10:40:12.014Z,96319.22
2023-05-05T10:42:39.807Z,96322.56
2023-05-05T10:45:06.757Z,96320.19
2023-05-05T10:47:33.651Z,96307.09
2023-05-05T10:50:03.872Z,96310.28
2023-05-05T10:52:48.754Z,96300.88
2023-05-05T10:55:21.960Z,96298.69
2023-05-05T10:57:52.870Z,96301.66
2023-05-05T11:00:38.039Z,96292.53
2023-05-05T11:03:16.641Z,96291.94
2023-05-05T11:06:01.986Z,96290.25
2023-05-05T11:08:28.345Z,96274.94
2023-05-05T11:10:54.709Z,96273.63
2023-05-05T11:13:21.937Z,96261.72
2023-05-05T11:15:52.472Z,96262.56
2023-05-05T11:18:33.827Z,96256.38
2023-05-05T11:21:00.459Z,96248.47
2023-05-05T11:23:27.355Z,96253.81
2023-05-05T11:25:54.347Z,96253.28
2023-05-05T11:28:24.916Z,96256.41
2023-05-05T11:30:58.721Z,96248.09
2023-05-05T11:33:32.554Z,96249.03
2023-05-05T11:36:05.808Z,96246.53
2023-05-05T11:38:32.881Z,96252.78
2023-05-05T11:41:02.236Z,96247.25
2023-05-05T11:43:28.520Z,96249.22
2023-05-05T11:46:16.939Z,96246.13
2023-05-05T11:48:44.495Z,96250.88
2023-05-05T11:51:12.022Z,96245.75
2023-05-05T11:53:41.651Z,96240.09
2023-05-05T11:56:08.806Z,96238.44
2023-05-05T11:58:35.122Z,96243.59
2023-05-05T12:01:04.687Z,96244.63
2023-05-05T12:03:40.008Z,96246.56
2023-05-05T12:06:07.250Z,96240.50
2023-05-05T12:08:36.735Z,96241.84
2023-05-05T12:11:10.243Z,96244.69
2023-05-05T12:13:36.974Z,96226.53
2023-05-05T12:16:13.269Z,96224.78
2023-05-05T12:18:40.154Z,96216.91
2023-05-05T12:21:14.560Z,96221.19
2023-05-05T12:23:40.943Z,96218.03
2023-05-05T12:26:08.000Z,96218.75
2023-05-05T12:28:49.301Z,96219.97
2023-05-05T12:31:16.082Z,96217.69
2023-05-05T12:33:42.902Z,96214.28
2023-05-05T12:36:09.392Z,96216.44
2023-05-05T12:38:36.012Z,96211.16
2023-05-05T12:41:02.566Z,96211.63
2023-05-05T12:43:29.950Z,96204.13
2023-05-05T12:46:10.466Z,96200.94
2023-05-05T12:48:40.683Z,96202.22
2023-05-05T12:51:11.200Z,96198.34
2023-05-05T12:53:37.626Z,96194.59
2023-05-05T12:56:04.259Z,96191.50
2023-05-05T12:58:52.453Z,96190.56
2023-05-05T13:01:18.767Z,96180.94
2023-05-05T13:03:45.505Z,96180.38
2023-05-05T13:06:21.761Z,96176.25
2023-05-05T13:08:48.232Z,96166.88
2023-05-05T13:11:14.721Z,96168.97
2023-05-05T13:13:42.111Z,96157.91
2023-05-05T13:16:08.483Z,96159.13
2023-05-05T13:18:45.285Z,96152.19
2023-05-05T13:21:12.157Z,96146.19
2023-05-05T13:23:38.474Z,96143.13
2023-05-05T13:26:05.096Z,96139.72
2023-05-05T13:28:31.440Z,96135.00
2023-05-05T13:30:58.728Z,96122.31
2023-05-05T13:33:25.120Z,96128.72
2023-05-05T13:35:51.452Z,96112.28
2023-05-05T13:38:17.844Z,96106.91
2023-05-05T13:40:44.183Z,96101.53
2023-05-05T13:43:10.736Z,96091.00
2023-05-05T13:45:37.044Z,96083.00
2023-05-05T13:48:04.170Z,96075.06
2023-05-05T13:50:30.507Z,96077.09
2023-05-05T13:52:56.837Z,96081.44
2023-05-05T13:55:23.405Z,96067.31
2023-05-05T13:57:49.738Z,96075.88
2023-05-05T14:00:16.613Z,96069.31
2023-05-05T14:02:43.141Z,96068.97
2023-05-05T14:05:09.968Z,96071.31
2023-05-05T14:07:36.511Z,96059.78
2023-05-05T14:10:03.063Z,96049.13
2023-05-05T14:12:29.871Z,96048.41
2023-05-05T14:14:56.524Z,96043.38
2023-05-05T14:17:23.905Z,96040.53
2023-05-05T14:19:50.483Z,96043.59
2023-05-05T14:22:20.710Z,96043.28
2023-05-05T14:24:47.249Z,96047.19
2023-05-05T14:27:13.840Z,96051.31
2023-05-05T14:29:40.191Z,96038.56
2023-05-05T14:32:06.654Z,96049.59
2023-05-05T14:34:33.030Z,96041.22
2023-05-05T14:36:59.399Z,96043.03
2023-05-05T14:39:26.184Z,96030.81
2023-05-05T14:41:53.401Z,96031.50
2023-05-05T14:44:19.737Z,96031.66
2023-05-05T14:46:46.570Z,96031.88
2023-05-05T14:49:13.935Z,96030.28
2023-05-05T14:51:40.916Z,96027.16
2023-05-05T14:54:14.277Z,96026.34
2023-05-05T14:56:47.037Z,96029.00
2023-05-05T14:59:13.411Z,96022.81
2023-05-05T15:01:39.816Z,96026.06
2023-05-05T15:04:06.338Z,96025.59
2023-05-05T15:06:32.790Z,96030.13
2023-05-05T15:08:59.161Z,96022.91
2023-05-05T15:11:25.576Z,96023.41
2023-05-05T15:13:52.026Z,96016.25
2023-05-05T15:16:18.478Z,96007.25
2023-05-05T15:18:44.960Z,96013.81
2023-05-05T15:21:11.431Z,96007.47
2023-05-05T15:23:37.708Z,96011.03
2023-05-05T15:26:04.460Z,96015.38
2023-05-05T15:28:31.059Z,96013.34
2023-05-05T15:30:59.089Z,96030.59
2023-05-05T15:33:26.064Z,96039.53
2023-05-05T15:35:52.490Z,96051.25
2023-05-05T15:38:18.853Z,96048.25
2023-05-05T15:40:47.130Z,96061.16
2023-05-05T15:43:14.864Z,96076.81
2023-05-05T15:45:41.643Z,96093.28
2023-05-05T15:48:10.273Z,96111.66
2023-05-05T15:50:36.715Z,96114.06
2023-05-05T15:53:03.016Z,96095.19
2023-05-05T15:55:29.326Z,96095.22
2023-05-05T15:57:55.920Z,96094.09
2023-05-05T16:00:22.994Z,96105.94
2023-05-05T16:02:49.766Z,96158.38
2023-05-05T16:05:16.492Z,96187.16
2023-05-05T16:07:42.790Z,96220.53
2023-05-05T16:10:09.847Z,96233.81
2023-05-05T16:12:36.402Z,96250.03
2023-05-05T16:15:02.752Z,96249.66
2023-05-05T16:17:29.345Z,96273.53
2023-05-05T16:19:55.952Z,96277.03
2023-05-05T16:22:22.575Z,96303.22
2023-05-05T16:24:48.932Z,96322.00
2023-05-05T16:27:15.845Z,96330.22
2023-05-05T16:29:42.174Z,96348.97
2023-05-05T16:32:08.469Z,96370.19
2023-05-05T16:34:34.820Z,96383.16
2023-05-05T16:37:01.216Z,96384.84
2023-05-05T16:39:27.553Z,96390.47
2023-05-05T16:41:54.810Z,96397.63
2023-05-05T16:44:21.110Z,96404.16
2023-05-05T16:46:47.436Z,96402.69
2023-05-05T16:49:13.789Z,96421.16
2023-05-05T16:51:40.145Z,96428.97
2023-05-05T16:54:06.445Z,96437.94
2023-05-05T16:56:32.818Z,96439.84
2023-05-05T16:58:59.150Z,96438.41
2023-05-05T17:01:25.631Z,96432.53
2023-05-05T17:03:51.980Z,96426.13
2023-05-05T17:06:18.415Z,96429.31
2023-05-05T17:08:44.865Z,96424.16
2023-05-05T17:11:11.901Z,96412.44
2023-05-05T17:13:38.330Z,96405.06
2023-05-05T17:16:04.799Z,96403.16
2023-05-05T17:18:31.163Z,96401.72
2023-05-05T17:20:57.575Z,96389.88
2023-05-05T17:23:24.641Z,96391.97
2023-05-05T17:25:51.526Z,96387.66
2023-05-05T17:28:17.843Z,96388.91
2023-05-05T17:30:44.294Z,96385.25
2023-05-05T17:33:10.738Z,96386.72
2023-05-05T17:35:37.440Z,96400.50
2023-05-05T17:38:03.840Z,96418.59
2023-05-05T17:40:30.189Z,96428.00
2023-05-05T17:42:56.572Z,96456.84
2023-05-05T17:45:23.224Z,96472.66
2023-05-05T17:48:06.068Z,96483.38
2023-05-05T17:50:56.668Z,96504.81
2023-05-05T17:53:23.459Z,96508.25
2023-05-05T17:55:49.887Z,96515.84
2023-05-05T17:58:16.199Z,96522.81
2023-05-05T18:00:42.515Z,96500.38
2023-05-05T18:03:08.899Z,96473.06
2023-05-05T18:05:35.471Z,96492.50
2023-05-05T18:08:02.402Z,96500.94
2023-05-05T18:10:28.808Z,96498.66
2023-05-05T18:12:55.339Z,96505.38
2023-05-05T18:15:21.990Z,96504.13
2023-05-05T18:17:48.332Z,96509.81
2023-05-05T18:20:14.806Z,96508.41
2023-05-05T18:22:41.217Z,96509.91
2023-05-05T18:25:08.286Z,96507.00
2023-05-05T18:27:35.991Z,96505.31
2023-05-05T18:30:02.833Z,96517.81
2023-05-05T18:32:29.526Z,96534.78
2023-05-05T18:34:56.224Z,96556.53
2023-05-05T18:37:23.071Z,96551.13
2023-05-05T18:39:49.634Z,96519.41
2023-05-05T18:42:16.007Z,96504.63
2023-05-05T18:44:42.822Z,96525.53
2023-05-05T18:47:09.231Z,96529.72
2023-05-05T18:49:35.664Z,96531.78
2023-05-05T18:52:02.490Z,96529.97
2023-05-05T18:54:28.876Z,96536.53
2023-05-05T18:56:55.802Z,96547.44
2023-05-05T18:59:22.295Z,96551.25
2023-05-05T19:01:49.165Z,96547.00
2023-05-05T19:04:29.359Z,96538.59
2023-05-05T19:07:35.762Z,96540.88
2023-05-05T19:10:04.017Z,96539.81
2023-05-05T19:12:30.433Z,96536.38
2023-05-05T19:14:56.807Z,96537.31
2023-05-05T19:17:23.183Z,96543.31
2023-05-05T19:19:49.972Z,96548.53
2023-05-05T19:22:26.703Z,96549.75
2023-05-05T19:24:53.424Z,96553.75
2023-05-05T19:27:19.783Z,96552.41
2023-05-05T19:29:49.116Z,96561.97
2023-05-05T19:32:15.526Z,96562.47
2023-05-05T19:34:42.831Z,96562.41
2023-05-05T19:37:09.444Z,96560.81
2023-05-05T19:39:36.216Z,96560.81
2023-05-05T19:42:03.709Z,96564.72
2023-05-05T19:44:30.057Z,96564.16
2023-05-05T19:46:56.384Z,96566.63
2023-05-05T19:49:23.300Z,96565.34
2023-05-05T19:51:50.306Z,96562.59
2023-05-05T19:54:16.777Z,96562.53
2023-05-05T19:56:43.132Z,96563.56
2023-05-05T19:59:09.593Z,96569.63
2023-05-05T20:01:36.043Z,96567.44
2023-05-05T20:04:03.682Z,96567.44
2023-05-05T20:06:30.257Z,96565.84
2023-05-05T20:08:56.577Z,96562.59
2023-05-05T20:11:23.169Z,96562.25
2023-05-05T20:13:49.721Z,96562.59
2023-05-05T20:16:16.413Z,96562.69
2023-05-05T20:19:14.974Z,96553.13
2023-05-05T20:21:41.393Z,96553.66
2023-05-05T20:24:07.869Z,96548.63
2023-05-05T20:26:34.937Z,96553.88
2023-05-05T20:29:01.330Z,96539.66
2023-05-05T20:31:27.661Z,96545.16
2023-05-05T20:33:54.286Z,96547.88
2023-05-05T20:36:20.630Z,96554.38
2023-05-05T20:38:47.001Z,96551.25
2023-05-05T20:41:13.347Z,96549.28
2023-05-05T20:43:39.750Z,96548.69
2023-05-05T20:46:07.104Z,96554.47
2023-05-05T20:48:34.151Z,96548.25
2023-05-05T20:51:02.773Z,96536.88
2023-05-05T20:53:29.053Z,96534.97
2023-05-05T20:55:55.376Z,96535.28
2023-05-05T20:58:21.709Z,96531.03
2023-05-05T21:00:48.167Z,96532.88
2023-05-05T21:03:15.051Z,96531.78
2023-05-05T21:05:41.555Z,96528.66
2023-05-05T21:08:07.949Z,96522.88
2023-05-05T21:10:34.471Z,96524.19
2023-05-05T21:13:01.742Z,96515.22
2023-05-05T21:15:28.364Z,96515.34
2023-05-05T21:17:55.094Z,96522.66
2023-05-05T21:20:21.794Z,96507.88
2023-05-05T21:22:48.153Z,96511.66
2023-05-05T21:25:16.080Z,96515.16
2023-05-05T21:27:42.623Z,96516.41
2023-05-05T21:30:10.935Z,96509.19
2023-05-05T21:32:38.058Z,96497.13
2023-05-05T21:35:06.194Z,96499.97
2023-05-05T21:37:32.581Z,96503.44
2023-05-05T21:39:58.995Z,96494.66
2023-05-05T21:42:25.665Z,96498.03
2023-05-05T21:44:51.998Z,96503.13
2023-05-05T21:47:18.416Z,96504.09
2023-05-05T21:49:44.742Z,96505.03
2023-05-05T21:52:11.247Z,96510.53
2023-05-05T21:54:37.592Z,96522.41
2023-05-05T21:57:04.222Z,96538.69
2023-05-05T21:59:30.687Z,96544.41
2023-05-05T22:01:57.304Z,96559.09
2023-05-05T22:04:24.240Z,96550.69
2023-05-05T22:06:50.865Z,96535.50
2023-05-05T22:09:17.270Z,96531.50
2023-05-05T22:11:43.536Z,96531.66
2023-05-05T22:14:10.449Z,96534.50
2023-05-05T22:16:36.884Z,96527.38
2023-05-05T22:19:03.254Z,96516.28
2023-05-05T22:21:29.560Z,96521.19
2023-05-05T22:23:55.994Z,96510.44
2023-05-05T22:26:22.402Z,96501.78
2023-05-05T22:28:48.733Z,96496.88
2023-05-05T22:31:15.718Z,96507.16
2023-05-05T22:33:42.143Z,96510.53
2023-05-05T22:36:10.001Z,96496.28
2023-05-05T22:38:36.429Z,96492.13
2023-05-05T22:41:02.760Z,96502.44
2023-05-05T22:43:29.067Z,96503.66
2023-05-05T22:45:55.463Z,96529.06
2023-05-05T22:48:21.879Z,96527.47
2023-05-05T22:50:48.170Z,96541.03
2023-05-05T22:53:14.470Z,96547.88
2023-05-05T22:55:40.941Z,96557.81
2023-05-05T22:58:07.408Z,96549.50
2023-05-05T23:00:33.720Z,96514.78
2023-05-05T23:03:00.262Z,96521.19
2023-05-05T23:05:26.716Z,96531.53
2023-05-05T23:07:53.238Z,96548.69
2023-05-05T23:10:19.583Z,96542.75
2023-05-05T23:12:46.033Z,96543.00
2023-05-05T23:15:12.997Z,96539.09
2023-05-05T23:17:39.361Z,96540.66
2023-05-05T23:20:06.258Z,96528.88
2023-05-05T23:22:32.590Z,96519.19
2023-05-05T23:24:59.009Z,96521.34
2023-05-05T23:27:25.364Z,96517.50
2023-05-05T23:29:51.763Z,96515.78
2023-05-05T23:32:18.055Z,96526.44
2023-05-05T23:34:44.329Z,96512.75
2023-05-05T23:37:10.802Z,96517.13
2023-05-05T23:39:37.128Z,96508.50
2023-05-05T23:42:03.554Z,96506.91
2023-05-05T23:44:29.889Z,96507.41
2023-05-05T23:47:00.008Z,96505.44
2023-05-05T23:49:26.592Z,96508.53
2023-05-05T23:51:53.541Z,96494.97
2023-05-05T23:54:19.902Z,96500.72
2023-05-05T23:56:47.737Z,96493.53
2023-05-05T23:59:14.119Z,96487.38
